cliquez pour ajouter le site Runraid à vos favoris  English version (google)  Retour à l'accueil Ecrire à l'auteur du site Runraid : Michel Jourdan



Les prochaines courses


Les derniers résultats

cliquez pour visualiser la page complète relatant la chronologie des éruptions du Piton de la Fournaise
éruptions Piton de la Fournaise


Ile de La Réunion

 Diagonale des Fous 

Ecrire au créateur du site : Michel Jourdan
Contact


2015-12-20 - Foulées de la Liberté

Pour consulter le palmarès d'un coureur, un clic sur son nom !

Vous avez des remarques, corrections, ... sur ces résultats , un clic sur --> pour me transmettre toute information concernant les classements


Foulées de la Liberté - 2015 : classement des 326 finishers
Place Nom Temps Cat. Club Sexe Clt/cat.
Place Nom Temps Cat. Club Sexe Clt/cat.
1 ERINACINT GEORGES MARIE 00:35:06 SEM RUN O2 974 M 98
2 LAGADEC JOHANN 00:35:21 SEM - M 2 SEM 170
3 BOUFARIHA ABDELJALIL 00:36:08 V1M CASM M 1 V1M 42
4 Cadet Jean Marie 00:36:08 V1M - M 2 V1M 368
5 ODULES Stephane 00:36:35 SEM OUESTRAIL M 3 SEM 221
6 JUILLEROT Emmanuel 00:36:38 SEM - M 4 SEM 165
7 LIBELLE JOVANY 00:36:39 SEM CAPOSS M 5 SEM 183
8 ADRIEN ERIC 00:36:42 V1M ACSP M 3 V1M 4
9 CHARRETIER Nicolas 00:37:18 SEM - M 6 SEM 61
10 GANNE JEAN REMI 00:37:25 SEM RUN O2 974 M 7 SEM 112
11 MAILLOT JEAN DANY 00:37:33 SEM - M 8 SEM 193
12 MACE SEBASTIEN 00:37:36 SEM - M 9 SEM 191
13 Cheong Yuen Zing Guillaume 00:37:41 SEM CAPOSS M 10 SEM 63
14 BEN ARFA Adel 00:37:42 SEM - M 11 SEM 22
15 QUENEHEN DAVID 00:37:56 V1M RUN O2 974 M 4 V1M 248
16 CASTEL Luc 00:38:11 SEM - M 12 SEM 53
17 BOUTHELOUP CHARLES 00:38:21 SEM - M 13 SEM 47
18 TECHER IVAN DAMIEN 00:38:23 SEM RUN O2 974 M 14 SEM 291
19 Robert Jacky 00:38:33 V1M - M 5 V1M 390
20 Soueidan Khaled 00:38:53 V1M KINEPOD974 M 6 V1M 334
21 ANTONIOLLI Guillaume 00:38:57 SEM - M 15 SEM 11
22 CUVELIER LEOPOLD 00:39:08 SEM - M 16 SEM 71
23 BARDEL FRANCOIS 00:39:08 SEM KINEPOD974 M 17 SEM 17
24 DUBART Kevin 00:39:14 JUM CASM M 1 JUM 92
25 CELESTE FABIEN 00:39:18 JUM TCSA M 2 JUM 59
26 RANGANAYAGUY STEPHANE 00:39:27 SEM RUN O2 974 M 18 SEM 250
27 GARA JEAN DENIS 00:39:29 V1M RCSD M 7 V1M 116
28 NARAYANIN Honore 00:39:30 V2M - M 1 V2M 214
29 ELLAMA Roland 00:39:48 V2M - M 2 V2M 97
30 LEOCADIE JEAN LOUIS 00:39:55 V1M CAPP M 8 V1M 180
31 Sambenoun marcelin 00:40:17 V2M - M 3 V2M 275
32 TECHER Moise 00:40:17 SEM - M 19 SEM 293
33 HEURTIN Frederic 00:40:19 V1M - M 9 V1M 138
34 huet christophe 00:40:33 V2M - M 4 V2M 145
35 JEAN patrick 00:40:42 V1M - M 10 V1M 159
36 CELESTE Eric 00:40:45 SEM - M 20 SEM 58
37 Victoire Louis 00:40:46 V1M - M 11 V1M 389
38 MASSAIN Jacques 00:40:49 V2M - M 5 V2M 203
39 PARMENTIER Cedric 00:41:04 SEM - M 21 SEM 229
40 DOUYERE Benjamin 00:41:12 SEM - M 22 SEM 90
41 GROSSET david 00:41:12 SEM - M 23 SEM 130
42 THOMAS Jolia 00:41:13 SEM - M 24 SEM 300
43 Pierre Ulderic 00:41:15 SEM - M 25 SEM 392
44 CHEONG Jerome 00:41:18 SEM - M 26 SEM 64
45 payet olivier 00:41:20 V1M - M 12 V1M 235
46 DERAND DELPHINE 00:41:33 SEF ACSP F 1ere F 86
47 LAURENT JEAN MARIO 00:41:34 V2M - M 6 V2M 177
48 CHEFIARE Etienne 00:41:41 V1M - M 13 V1M 62
49 rublon pierre 00:41:47 SEM - M 27 SEM 272
50 GENAIS YANN 00:41:59 SEM - M 28 SEM 119
51 MELOBOSIS Gilbert 00:42:18 V2M - M 7 V2M 206
52 RIGOLLIER Pierre 00:42:31 V1M - M 14 V1M 262
53 GUICHARD PATRICK 00:42:31 V2M - M 8 V2M 131
54 JOBERT CHRISTIAN 00:42:32 V3M AC ENTENTE M 1 V3M 164
55 LON MON POY Eric 00:42:51 V1M - M 15 V1M 186
56 JEANNEAU WILLY 00:42:54 V1M - M 16 V1M 162
57 ZEGHADI MUSTAPHA 00:42:57 V1M - M 17 V1M 320
58 SEVERIN MICKAEL 00:43:05 SEM - M 29 SEM 278
59 BERNOT DAVID 00:43:06 ESM RCSD M 1 ESM 25
60 FADUILA Hafaitahou 00:43:21 SEM - M 30 SEM 102
61 BILLARD JEROME 00:43:33 SEM TCSA M 31 SEM 35
62 Clain Antoine 00:43:37 V1M - M 18 V1M 394
63 INJIRAKI JEAN ALEX 00:43:47 V1M - M 19 V1M 150
64 KOO PIN HIN yassin 00:44:04 SEM - M 32 SEM 168
65 GUILLARD christophe 00:44:07 SEM - M 33 SEM 132
66 RAYEROUX NICOLAS 00:44:08 V2M - M 9 V2M 252
67 Lepinay Claude 00:44:12 SEM - M 34 SEM 354
68 Techer Ludovic 00:44:12 SEM - M 35 SEM 346
69 SAUTRON JULIEN 00:44:26 SEM DENIV M 36 SEM 276
70 FONTAINE YOHANN 00:44:28 SEM - M 37 SEM 105
71 DORBY THEODORE 00:44:52 V2M ACSP M 10 V2M 89
72 ELLAMA Nicolas 00:44:53 SEM - M 38 SEM 96
73 Hubert Desire 00:44:55 SEM TCSA M 39 SEM 307
74 beton eric 00:44:56 V1M - M 20 V1M 29
75 GARA ESTEBAN 00:44:57 JUM RCSD M 3 JUM 114
76 RICOCE Sebastien 00:45:05 V1M - M 21 V1M 261
77 CLAURAT LUCIE 00:45:06 SEF ACSP F 2eme F 68
78 ERINACINT CLEMENT 00:45:18 V1M - M 22 V1M 99
79 JACQUES Jean Marc 00:45:21 V2M AC ENTENTE M 11 V2M 155
80 PUCHEU RENAUD 00:45:32 SEM RUN O2 974 M 40 SEM 247
81 Belgrade Germain 00:45:34 SEM - M 41 SEM 355
82 HOARAU jean calixte 00:45:37 V2M - M 12 V2M 140
83 DAMOUR Ruddy 00:45:39 SEM - M 42 SEM 73
84 GOBARDEN AMANDINE 00:45:42 ESF - F 3eme F / 1 ESF 122
85 PAQUIRY FRANCOIS 00:45:43 V1M DENIV M 23 V1M 226
86 BOTREAU EMMANUELLE 00:45:43 SEF RUN ODYSSEA F 4eme F / 3 SEF 39
87 BOUDART GERALDINE 00:46:01 V1F - F 5eme F / 1 V1F 41
88 DEJEAN Bryan Nelson 00:46:02 ESM - M 2 ESM 78
89 POTHIN Pierre 00:46:07 SEM - M 43 SEM 243
90 CASIMIR DIDIER 00:46:19 V1M - M 24 V1M 52
91 PAYET dider 00:46:28 SEM - M 44 SEM 233
92 GOMEZ DOMINIQUE 00:46:33 V1F AC ENTENTE F 6eme F / 2 V1F 125
93 VIRASSAMY Nicolas 00:46:53 CAM - M 1 CAM 317
94 BASTIEN guillaume 00:46:57 SEM - M 45 SEM 19
95 MAZEAU fabrice 00:46:59 SEM - M 46 SEM 204
96 JEAN MARIE Patrice 00:47:00 SEM - M 47 SEM 161
97 Barbin Andre Michel 00:47:01 V3M CAPOSS M 2 V3M 353
98 Ouzan Thierry 00:47:02 SEM - M 48 SEM 357
99 HOAREAU MYRIELLE 00:47:02 V2F - F 7eme F / 1 V2F 144
100 FURIA Jean Noel 00:47:03 V1M - M 25 V1M 109
101 Simme Willy 00:47:03 SEM KINEPOD974 M 49 SEM 333
102 MINATCHY Jean francois 00:47:08 SEM - M 50 SEM 210
103 LAFFORGUE BERNARD 00:47:18 V3M - M 3 V3M 169
104 Ginet Bruno 00:47:24 V1M - M 26 V1M 359
105 LAUYAM Michel 00:47:24 V3M - M 4 V3M 178
106 LARIVIERE audrey 00:47:29 SEF - F 8eme F / 4 SEF 176
107 BERTHELOT franck 00:47:34 V1M - M 27 V1M 26
108 Ferreto Daniel Jean Julien 00:47:44 V1M - M 28 V1M 371
109 Sautron Charles Eric 00:47:45 V1M - M 29 V1M 372
110 Baptisto Jean Yves 00:47:49 V2M - M 13 V2M 383
111 Hoarau Jimmy 00:47:50 V1M - M 30 V1M 388
112 Danube Maud 00:47:59 V1F - F 9eme F / 3 V1F 328
113 MAILLOT Serges 00:48:01 V3M - M 5 V3M 196
114 VARANE Vanessa 00:48:04 SEF - F 10eme F / 5 SEF 310
115 PRUGNIERES ERIC 00:48:09 V1M - M 31 V1M 246
116 FRANCE Eric 00:48:12 V2M - M 14 V2M 108
117 ABDOU salami 00:48:14 SEM - M 51 SEM 1
118 HOARAU JEAN CLAUDE 00:48:21 V2M ACSP M 15 V2M 141
119 DEPUILLE FABRICE 00:48:22 V1M - M 32 V1M 85
120 Ricquebourg Vincent 00:48:23 SEM - M 52 SEM 338
121 Aure Yvon 00:48:27 V2M - M 16 V2M 374
122 TURPIN Marie Gisele 00:48:46 V2F - F 11eme F / 2 V2F 305
123 PAYET Yoni 00:48:47 SEM - M 53 SEM 236
124 Singa Stephane 00:48:48 V1M - M 33 V1M 367
125 BERTRAND severine 00:49:00 V1F - F 12eme F / 4 V1F 27
126 Leger Thierry 00:49:06 SEM - M 54 SEM 356
127 TITUS Brice 00:49:07 SEM - M 55 SEM 302
128 MARION FABIENNE 00:49:11 V1F - F 13eme F / 5 V1F 202
129 Samy Vijay 00:49:16 SEM - M 56 SEM 386
130 Ricquebourg Jessie 00:49:16 SEM - M 57 SEM 351
131 CADERBY GEORGES MARIE 00:49:17 V2M CSSDA M 17 V2M 49
132 VIRAPIN CAROUMBIN Jean Mickael 00:49:18 V1M - M 34 V1M 316
133 Clain Clement 00:49:21 V2M - M 18 V2M 366
134 PAVABEMESTRY Frederic 00:49:24 SEM - M 58 SEM 231
135 BOURA Raynat 00:49:24 SEF - F 14eme F / 6 SEF 45
136 WEISS LOUISA 00:49:31 V1F - F 15eme F / 6 V1F 319
137 GRONDIN PASCAL 00:49:37 V1M TCSA M 35 V1M 128
138 DEJEAN Frederic 00:49:42 V1M - M 36 V1M 79
139 BOULEVART JEROME 00:49:52 SEM CSSDA M 59 SEM 44
140 Valcares Jean Charles 00:49:56 V2M AVAD M 19 V2M 381
141 Dubart Frederic 00:49:56 V1M - M 37 V1M 391
142 DELVOYE STEPHANIE 00:49:58 V1F RUN ODYSSEA F 16eme F / 7 V1F 82
143 MINIAMA MARIE LAURE 00:50:00 SEF - F 17eme F / 7 SEF 211
144 MERCHER NATHALIE 00:50:13 V2F - F 18eme F / 3 V2F 207
145 HARDY Pascale 00:50:17 V2M - M 20 V2M 136
146 grondin jacky 00:50:18 V2M - M 21 V2M 129
147 SIRA Jean Elie 00:50:19 V2M - M 22 V2M 285
148 POUNOUSSAMY LATCHIMY Jean Michel 00:50:20 V1M - M 38 V1M 245
149 GODERON Beatrice 00:50:22 SEF - F 19eme F / 8 SEF 124
150 MARA allan 00:50:26 SEM - M 60 SEM 197
151 TURBY Kevin 00:50:39 SEM - M 61 SEM 304
152 TALPIN JEROME 00:50:42 V1M - M 39 V1M 287
153 Boyer Oderic Jean 00:50:45 V1M - M 40 V1M 365
154 BILAIN vital 00:50:46 V1M - M 41 V1M 34
155 LALA Salma 00:50:46 SEF CSSDA F 20eme F / 9 SEF 171
156 IVOULE MOUSSA Jean Fabrice 00:50:51 V1M - M 42 V1M 151
157 DEMOUSTIER LAURA 00:50:56 JUF CSSDA F 21eme F / 1 JUF 84
158 RIVIERE JEAN MAURICE 00:50:57 V2M - M 23 V2M 263
159 Celestin Alexandre 00:51:00 SEM - M 62 SEM 329
160 DEMOUSTIER JEAN FRANCOIS 00:51:01 V1M CSSDA M 43 V1M 83
161 MEHL ANDRE 00:51:02 V3M DENIV M 6 V3M 205
162 PAYET Charles 00:51:08 SEM - M 63 SEM 234
163 LAOUAR ABDELHEK 00:51:09 V1M RUN O2 974 M 44 V1M 175
164 BILLAUD Jacques 00:51:29 V3M - M 7 V3M 36
165 Hoarau Fabrice 00:51:30 SEM CAPOSS M 64 SEM 393
166 GARA PAULIN 00:51:36 ESM RCSD M 3 ESM 115
167 REBOULE VIRGINIE 00:51:38 SEF CAPP F 22eme F / 10 SEF 255
168 KLEIN JOSETTE 00:51:46 V2F ACSTB F 23eme F / 4 V2F 167
169 ESPARON Anaelle 00:51:54 SEF - F 24eme F / 11 SEF 101
170 BILAIN Rene Paul 00:51:59 SEM - M 65 SEM 32
171 MARBOIS PASCAL 00:52:02 V2M CAPOSS M 24 V2M 198
172 SINAMALE Harry 00:52:08 V1M - M 45 V1M 283
173 MAILLOT OLIVIER 00:52:37 SEM - M 66 SEM 192
174 INCANA PATRICE 00:52:38 V1M RCSD M 46 V1M 146
175 Puylaurent Julius 00:52:41 V1M OUESTRAIL M 47 V1M 347
176 SIMONPIERI Enzo Gandalf 00:52:43 CAM - M 2 CAM 282
177 DALERY JOHAN 00:52:50 SEM CSSDA M 67 SEM 72
178 Pantaleon Jean 00:52:59 V2M - M 25 V2M 380
179 BARBEIRA mathieu 00:53:25 SEM - M 68 SEM 15
180 MUSSARD Nathalie 00:53:27 V1F - F 25eme F / 8 V1F 213
181 CLAIN david 00:53:33 V2M - M 26 V2M 67
182 Aure Michelle 00:53:35 V2F - F 26eme F / 5 V2F 373
183 RENAUD stephanie 00:53:36 V1F - F 27eme F / 9 V1F 257
184 SALAI Jean Yannick 00:53:39 V1M - M 48 V1M 273
185 TECHER Merika 00:53:48 SEF - F 28eme F / 12 SEF 292
186 POTHIN Arnaud 00:53:51 SEM - M 69 SEM 242
187 Bassonville Pascal 00:54:04 V2M - M 27 V2M 327
188 HENRY Regis 00:54:11 SEM - M 70 SEM 137
189 REBOULE FREDERIC 00:54:25 SEM CAPP M 71 SEM 256
190 Pannacci Sonia 00:54:33 SEF - F 29eme F / 13 SEF 326
191 PICART LAURIANE 00:54:33 SEF - F 30eme F / 14 SEF 239
192 Ramdani Nacera 00:54:45 V1F - F 31eme F / 10 V1F 249
193 Cellier Boris Rubens 00:54:47 SEM - M 72 SEM 360
194 Clain Sebastien 00:54:54 CAM - M 3 CAM 339
195 LOUTCHMIA REJANE 00:55:00 V1F TCSA F 32eme F / 11 V1F 190
196 REAL Marie NADEGE 00:55:02 V1F - F 33eme F / 12 V1F 254
197 SIMME Jean Prisca 00:55:08 SEM CASM M 73 SEM 280
198 BAREL Sophie 00:55:29 SEF - F 34eme F / 15 SEF 18
199 LORRAINE GUY THIERRY 00:55:37 V1M TCSA M 49 V1M 187
200 Donz Robert 00:56:06 V2M CAPOSS M 28 V2M 352
201 Joron Jean Daniel 00:56:07 V1M - M 50 V1M 342
202 DANUBE eric 00:56:16 V1M - M 51 V1M 75
203 JACQUES MANINA 00:56:21 CAF - F 35eme F / 1 CAF 154
204 SINAMALE valerie 00:56:24 V1F - F 36eme F / 13 V1F 284
205 TETIA WILLIAM 00:56:31 V1M CSSDA M 52 V1M 297
206 LANCIANI Sophie 00:56:34 V1F - F 37eme F / 14 V1F 174
207 BELLON MARIE ANGE 00:56:46 V3F ACSTB F 38eme F / 1 V3F 21
208 TESTON eric 00:56:49 V2M - M 29 V2M 295
209 CLAIN samuel gesner 00:57:12 SEM - M 74 SEM 66
210 Maillot Wilfried 00:57:13 ESM - M 4 ESM 340
211 JEAN MARIE Marie Anise 00:57:16 SEF - F 39eme F / 16 SEF 160
212 INDIANA Francisca 00:57:41 SEF - F 40eme F / 17 SEF 148
213 INDIANA Henri 00:57:41 V1F - F 41eme F / 15 V1F 149
214 ESPARON Jerome 00:57:59 V2M - M 30 V2M 100
215 ELISABETH Brian 00:58:43 SEM - M 75 SEM 95
216 Tsang Hin Sun Valerie 00:58:45 SEF - F 42eme F / 18 SEF 361
217 Gace Huguette 00:58:48 SEF - F 43eme F / 19 SEF 363
218 Telegrand Nathalie 00:59:04 V1F - F 44eme F / 16 V1F 337
219 CALPETARD Marie Catherine 00:59:05 SEF - F 45eme F / 20 SEF 50
220 CHANE THO WOR CHRISTELLE 00:59:16 V1F - F 46eme F / 17 V1F 60
221 THIERS Michel 00:59:20 SEM - M 76 SEM 299
222 MERCIER CHRISTOPHE 00:59:31 V1M - M 53 V1M 208
223 maillot daniel 00:59:35 V2M - M 31 V2M 194
224 klebert Leste 00:59:40 V2F - F 47eme F / 6 V2F 166
225 revonge thierry 00:59:40 V1M - M 54 V1M 258
226 BAPTISTE Murielle 00:59:42 SEF - F 48eme F / 21 SEF 14
227 CAVERY NADINE 00:59:44 SEF - F 49eme F / 22 SEF 57
228 Hibon Andre 00:59:50 V4M AVAD M 1 V4M 358
229 Cascade Frederique 01:00:01 V2F - F 50eme F / 7 V2F 384
230 SOUPAYA VALLIAMA FABIOLA MARIE N 01:00:02 SEF DENIV F 51eme F / 23 SEF 286
231 JAURES Nelcy 01:00:08 V1F AC ENTENTE F 52eme F / 18 V1F 158
232 GALBOIS NATHALIE 01:00:25 V2F - F 53eme F / 8 V2F 111
233 HOARAU Sarah 01:00:28 SEF - F 54eme F / 24 SEF 143
234 PEYRUSE Christelle 01:00:33 V1F - F 55eme F / 19 V1F 238
235 BLAS Maurice 01:00:35 V2M - M 32 V2M 37
236 BERNARD GEORGES 01:00:35 V2M CAPP M 33 V2M 23
237 JACQUES NICOLAS 01:00:40 SEM - M 77 SEM 153
238 HAMON Elodie 01:00:40 SEF - F 56eme F / 25 SEF 134
239 HAMON Eric 01:00:41 V1M - M 55 V1M 135
240 TECHER Wendy 01:00:48 SEF - F 57eme F / 26 SEF 294
241 GRONDIN ELODIE 01:00:50 SEF - F 58eme F / 27 SEF 127
242 HOARAU Pierrot 01:00:50 V1M - M 56 V1M 142
243 Bleger Celine 01:01:13 SEF - F 59eme F / 28 SEF 330
244 ROBERT Larry 01:01:25 SEM - M 78 SEM 268
245 DIJOUX Claudine 01:01:27 V2F - F 60eme F / 9 V2F 87
246 PARIS JEROME 01:01:27 SEM - M 79 SEM 227
247 BAYLE SOPHIE 01:01:29 V1F TCSA F 61eme F / 20 V1F 20
248 Auge Veronique 01:01:29 V1F - F 62eme F / 21 V1F 30
249 Sorre Veronique 01:01:37 V1F - F 63eme F / 22 V1F 395
250 FONTAINE Stephanie 01:01:45 SEF - F 64eme F / 29 SEF 107
251 AGAMEMNON chantal 01:02:03 V1F - F 65eme F / 23 V1F 6
252 TIRANO Herode 01:02:16 SEM - M 80 SEM 301
253 BAGASSE Fawzia 01:02:43 SEF - F 66eme F / 30 SEF 13
254 CHOPRA tazeen 01:03:00 V1F - F 67eme F / 24 V1F 65
255 LAMBERT alexandre 01:03:24 SEM - M 81 SEM 173
256 Jacalas Venise 01:03:26 V1F - F 68eme F / 25 V1F 344
257 CATAMBARA JEAN ERICK 01:03:29 V1M - M 57 V1M 55
258 Seychelles Bruno 01:03:36 SEM - M 82 SEM 350
259 INCANA GERALDINE 01:03:37 V1F RCSD F 69eme F / 26 V1F 147
260 Churin Jean Michel 01:03:39 V2M - M 34 V2M 369
261 GALAIS RENEE PAULE 01:03:53 SEF - F 70eme F / 31 SEF 110
262 BERNARD MARIE PIERRE 01:04:03 V1F CAPP F 71eme F / 27 V1F 24
263 DAMOUR ANNY DAISY 01:04:04 SEF CAPP F 72eme F / 32 SEF 74
264 AH SANE Eddy 01:04:16 SEM - M 83 SEM 7
265 AMO Mathieu 01:04:17 SEM - M 84 SEM 10
266 DE LARICHAUDY LAURENCE 01:04:34 SEM - M 85 SEM 77
267 Lacas Denise 01:04:40 V2F CSSDA F 73eme F / 10 V2F 335
268 LOCATE Haussman 01:04:49 V2M - M 35 V2M 184
269 Leon Sonia 01:05:03 V1F TCSA F 74eme F / 28 V1F 189
270 Benaich Philippe 01:05:33 V2M TCSA M 36 V2M 123
271 SEVINGUE ALINE 01:05:33 V2F TCSA F 75eme F / 11 V2F 279
272 RANGAYANAGUY JEREMY 01:05:40 ESM - M 5 ESM 251
273 Begue Bertrand 01:06:35 SEM - M 86 SEM 377
274 BRUGALLE ERIC 01:06:39 V2M - M 37 V2M 48
275 ADRIEN Marie Anaelle 01:07:09 SEF - F 76eme F / 33 SEF 5
276 CARO Fabrice 01:07:33 SEM - M 87 SEM 51
277 FENELON jean luc 01:07:45 V2M - M 38 V2M 103
278 NOYER Yves 01:08:16 V2M AC ENTENTE M 39 V2M 219
279 Rombaut Francois 01:08:18 SEM - M 88 SEM 348
280 Vericel Yannick 01:08:18 SEM - M 89 SEM 343
281 Maillot Nadia 01:08:43 V1F - F 77eme F / 29 V1F 336
282 PAYET EMILIE 01:08:50 SEF - F 78eme F / 34 SEF 232
283 BOTOMISY ROBELINE 01:09:04 SEF CAPOSS F 79eme F / 35 SEF 38
284 BOURLY LARISSA 01:09:04 SEF - F 80eme F / 36 SEF 46
285 Samelor Cyril 01:09:13 V1M - M 58 V1M 349
286 CONDAPANAIKEN OLIVIER 01:09:15 SEM - M 90 SEM 69
287 Narsou Marie Josee 01:09:46 V2F - F 81eme F / 12 V2F 375
288 AJANY Morgane 01:09:49 SEF - F 82eme F / 37 SEF 8
289 Maillot Nesly 01:09:51 SEF - F 83eme F / 38 SEF 396
290 PARMENTIER Kamiah 01:09:56 SEF - F 84eme F / 39 SEF 228
291 VERBAR JESSIE 01:10:15 SEF - F 85eme F / 40 SEF 312
292 POLEYA sabine 01:10:44 V1F - F 86eme F / 30 V1F 241
293 Pasquet Marco Gilles 01:10:50 V4M CASM M 2 V4M 370
294 TECHER marie sophie 01:11:02 V1F - F 87eme F / 31 V1F 290
295 CROUARD sandra 01:11:09 V1F - F 88eme F / 32 V1F 70
296 LOUISE Gladys 01:11:10 SEF - F 89eme F / 41 SEF 188
297 BIENAIME Marie Anne 01:11:43 V2F - F 90eme F / 13 V2F 31
298 Fontaine Payet Edna 01:11:49 V1F - F 91eme F / 33 V1F 378
299 CASTEL Marie Sandra 01:12:23 V1F - F 92eme F / 34 V1F 54
300 ROULOF Claudie 01:12:27 V1F - F 93eme F / 35 V1F 271
301 DAUVERYET Jean Michel 01:13:09 V2M - M 40 V2M 76
302 CATAPOULE Jayendra 01:13:11 SEM - M 91 SEM 56
303 BAGASSE Anne 01:14:27 SEF - F 94eme F / 42 SEF 12
304 BILAIN cindy 01:14:31 SEF - F 95eme F / 43 SEF 33
305 Imary Emilie 01:14:36 V1F CASM F 96eme F / 36 V1F 387
306 Girard Judith 01:14:37 V1F - F 97eme F / 37 V1F 379
307 Robert Jean Hugues 01:14:49 V2M - M 41 V2M 385
308 maillot sonia 01:15:51 V1F - F 98eme F / 38 V1F 195
309 MONTROUGE VALERIE 01:15:51 V1F TCSA F 99eme F / 39 V1F 212
310 Begue Marie Corine 01:17:13 V1F TCSA F 100eme F / 40 V1F 253
311 Choucair Youssef 01:17:50 V3M - M 8 V3M 382
312 Crampe Laurent 01:18:26 V1M - M 59 V1M 331
313 Payen Jean Pierre 01:18:33 V3M TCSA M 9 V3M 323
314 GUIRAUD jean 01:18:57 V3M - M 10 V3M 133
315 VEE GILBERT 01:20:44 V1M - M 60 V1M 311
316 Morby Marie Nathalie 01:28:18 V1F - F 101eme F / 41 V1F 362
317 RICOCE Estelle 01:32:30 SEF - F 102eme F / 44 SEF 259
318 Georget Marie Therese 01:32:30 V4F CSSDA F 103eme F / 1 V4F 364
319 Moler Georges 01:35:28 V2M TCSA M 42 V2M 223
320 DELISE PHILIPPE 01:35:28 V1M RUN O2 974 M 61 V1M 81
321 Payen Rosane 01:03:22 V4F TCSA F 104eme F / 2 V4F 322
322 SALQUEBRE Virginie 00:35:46 SEF - F 105eme F / 45 SEF 274
323 GIRARD christian 00:36:36 V2M - M 43 V2M 120
324 PAJANIE Christopher 00:56:15 SEM - M 92 SEM 225
325 LOF Marie Patricia 00:56:16 V1F - F 106eme F / 42 V1F 185
326 Fontana Arnaud 01:28:44 V3M - M 11 V3M 376


ReferencementCe site est listé dans la catégorie Sport : Sports extrêmes Dictionnaire
| Accueil | La Réunion  Vue du ciel | Météo | Cyclones | Volcan | Cirques de Mafate , Cilaos , Salazie | Photos Randonnées | Randonnées Réunion: Randos Espiègle , Courses montagne | Diagonale des Fous |  Marathon des Sables | Voyages Les stats du site | Fonds écran | Plan du site | Blog de runraid | Galerie photos Sport Réunion |